sensor_id;sensor_type;location;lat;lon;timestamp;P1;durP1;ratioP1;P2;durP2;ratioP2
64868;SDS011;51349;52.424;10.840;2023-06-22T00:04:56;10.45;;;9.65;;
64868;SDS011;51349;52.424;10.840;2023-06-22T00:09:57;10.48;;;9.60;;
64868;SDS011;51349;52.424;10.840;2023-06-22T00:14:58;11.13;;;10.32;;
64868;SDS011;51349;52.424;10.840;2023-06-22T00:19:58;11.88;;;10.73;;
64868;SDS011;51349;52.424;10.840;2023-06-22T00:25:00;11.27;;;10.25;;
64868;SDS011;51349;52.424;10.840;2023-06-22T00:30:00;10.77;;;9.82;;
64868;SDS011;51349;52.424;10.840;2023-06-22T00:35:02;11.55;;;10.65;;
64868;SDS011;51349;52.424;10.840;2023-06-22T00:40:02;11.43;;;10.48;;
64868;SDS011;51349;52.424;10.840;2023-06-22T00:45:05;12.65;;;11.45;;
64868;SDS011;51349;52.424;10.840;2023-06-22T00:50:06;11.48;;;10.57;;
64868;SDS011;51349;52.424;10.840;2023-06-22T00:55:09;11.48;;;10.57;;
64868;SDS011;51349;52.424;10.840;2023-06-22T01:00:10;10.27;;;9.48;;
64868;SDS011;51349;52.424;10.840;2023-06-22T01:05:17;11.52;;;10.50;;
64868;SDS011;51349;52.424;10.840;2023-06-22T01:15:49;12.57;;;11.50;;
64868;SDS011;51349;52.424;10.840;2023-06-22T01:20:56;11.48;;;10.48;;
64868;SDS011;51349;52.424;10.840;2023-06-22T01:31:23;11.40;;;10.50;;
64868;SDS011;51349;52.424;10.840;2023-06-22T01:36:26;12.00;;;10.90;;
64868;SDS011;51349;52.424;10.840;2023-06-22T01:41:29;11.10;;;10.25;;
64868;SDS011;51349;52.424;10.840;2023-06-22T01:46:33;11.65;;;10.68;;
64868;SDS011;51349;52.424;10.840;2023-06-22T01:51:35;12.20;;;11.20;;
64868;SDS011;51349;52.424;10.840;2023-06-22T01:56:35;11.10;;;10.05;;
64868;SDS011;51349;52.424;10.840;2023-06-22T02:01:40;12.07;;;11.07;;
64868;SDS011;51349;52.424;10.840;2023-06-22T02:06:44;10.98;;;10.05;;
64868;SDS011;51349;52.424;10.840;2023-06-22T02:11:46;10.98;;;10.07;;
64868;SDS011;51349;52.424;10.840;2023-06-22T02:16:49;10.60;;;9.68;;
64868;SDS011;51349;52.424;10.840;2023-06-22T02:21:51;12.07;;;10.32;;
64868;SDS011;51349;52.424;10.840;2023-06-22T02:26:52;11.70;;;10.50;;
64868;SDS011;51349;52.424;10.840;2023-06-22T02:31:53;11.02;;;10.07;;
64868;SDS011;51349;52.424;10.840;2023-06-22T02:36:54;12.45;;;11.32;;
64868;SDS011;51349;52.424;10.840;2023-06-22T02:41:54;12.85;;;11.55;;
64868;SDS011;51349;52.424;10.840;2023-06-22T02:46:55;11.35;;;10.45;;
64868;SDS011;51349;52.424;10.840;2023-06-22T02:51:56;11.77;;;10.68;;
64868;SDS011;51349;52.424;10.840;2023-06-22T02:56:57;11.93;;;10.73;;
64868;SDS011;51349;52.424;10.840;2023-06-22T03:01:58;11.93;;;10.90;;
64868;SDS011;51349;52.424;10.840;2023-06-22T03:06:58;11.85;;;10.90;;
64868;SDS011;51349;52.424;10.840;2023-06-22T03:12:01;12.82;;;11.63;;
64868;SDS011;51349;52.424;10.840;2023-06-22T03:17:02;13.00;;;11.82;;
64868;SDS011;51349;52.424;10.840;2023-06-22T03:22:04;12.52;;;11.50;;
64868;SDS011;51349;52.424;10.840;2023-06-22T03:27:04;12.50;;;11.30;;
64868;SDS011;51349;52.424;10.840;2023-06-22T03:32:06;12.55;;;11.55;;
64868;SDS011;51349;52.424;10.840;2023-06-22T03:37:06;12.80;;;11.60;;
64868;SDS011;51349;52.424;10.840;2023-06-22T03:42:07;12.70;;;11.70;;
64868;SDS011;51349;52.424;10.840;2023-06-22T03:47:08;12.13;;;11.23;;
64868;SDS011;51349;52.424;10.840;2023-06-22T03:52:09;11.80;;;10.90;;
64868;SDS011;51349;52.424;10.840;2023-06-22T03:57:10;12.57;;;11.38;;
64868;SDS011;51349;52.424;10.840;2023-06-22T04:02:11;12.25;;;11.27;;
64868;SDS011;51349;52.424;10.840;2023-06-22T04:07:12;12.50;;;11.45;;
64868;SDS011;51349;52.424;10.840;2023-06-22T04:12:13;12.98;;;11.88;;
64868;SDS011;51349;52.424;10.840;2023-06-22T04:17:13;12.32;;;11.18;;
64868;SDS011;51349;52.424;10.840;2023-06-22T04:22:15;12.95;;;11.50;;
64868;SDS011;51349;52.424;10.840;2023-06-22T04:27:15;12.98;;;11.85;;
64868;SDS011;51349;52.424;10.840;2023-06-22T04:32:16;12.82;;;11.73;;
64868;SDS011;51349;52.424;10.840;2023-06-22T04:37:16;12.40;;;11.23;;
64868;SDS011;51349;52.424;10.840;2023-06-22T04:42:17;13.05;;;11.88;;
64868;SDS011;51349;52.424;10.840;2023-06-22T04:47:18;13.32;;;12.02;;
64868;SDS011;51349;52.424;10.840;2023-06-22T04:52:18;13.43;;;12.18;;
64868;SDS011;51349;52.424;10.840;2023-06-22T04:57:20;12.60;;;11.43;;
64868;SDS011;51349;52.424;10.840;2023-06-22T05:02:21;12.55;;;11.45;;
64868;SDS011;51349;52.424;10.840;2023-06-22T05:07:22;11.48;;;10.57;;
64868;SDS011;51349;52.424;10.840;2023-06-22T05:12:27;11.00;;;10.20;;
64868;SDS011;51349;52.424;10.840;2023-06-22T05:17:29;10.88;;;9.98;;
64868;SDS011;51349;52.424;10.840;2023-06-22T05:22:29;11.95;;;10.95;;
64868;SDS011;51349;52.424;10.840;2023-06-22T05:27:30;10.60;;;9.80;;
64868;SDS011;51349;52.424;10.840;2023-06-22T05:32:30;11.30;;;10.30;;
64868;SDS011;51349;52.424;10.840;2023-06-22T05:37:31;9.82;;;9.10;;
64868;SDS011;51349;52.424;10.840;2023-06-22T05:42:32;10.93;;;10.05;;
64868;SDS011;51349;52.424;10.840;2023-06-22T05:47:33;10.73;;;9.90;;
64868;SDS011;51349;52.424;10.840;2023-06-22T05:52:34;10.18;;;9.40;;
64868;SDS011;51349;52.424;10.840;2023-06-22T05:57:35;10.35;;;9.35;;
64868;SDS011;51349;52.424;10.840;2023-06-22T06:02:35;10.45;;;9.63;;
64868;SDS011;51349;52.424;10.840;2023-06-22T06:07:36;9.48;;;8.88;;
64868;SDS011;51349;52.424;10.840;2023-06-22T06:12:37;9.00;;;8.30;;
64868;SDS011;51349;52.424;10.840;2023-06-22T06:17:48;9.95;;;9.15;;
64868;SDS011;51349;52.424;10.840;2023-06-22T06:22:50;9.00;;;8.07;;
64868;SDS011;51349;52.424;10.840;2023-06-22T06:27:51;9.07;;;8.20;;
64868;SDS011;51349;52.424;10.840;2023-06-22T06:32:55;8.43;;;7.78;;
64868;SDS011;51349;52.424;10.840;2023-06-22T06:37:58;10.07;;;7.72;;
64868;SDS011;51349;52.424;10.840;2023-06-22T06:42:58;8.38;;;6.90;;
64868;SDS011;51349;52.424;10.840;2023-06-22T06:47:59;8.95;;;8.25;;
64868;SDS011;51349;52.424;10.840;2023-06-22T06:53:00;8.80;;;8.10;;
64868;SDS011;51349;52.424;10.840;2023-06-22T06:58:01;8.40;;;7.70;;
64868;SDS011;51349;52.424;10.840;2023-06-22T07:03:04;10.68;;;9.77;;
64868;SDS011;51349;52.424;10.840;2023-06-22T07:08:07;8.88;;;7.95;;
64868;SDS011;51349;52.424;10.840;2023-06-22T07:13:07;8.27;;;7.47;;
64868;SDS011;51349;52.424;10.840;2023-06-22T07:18:08;8.23;;;7.43;;
64868;SDS011;51349;52.424;10.840;2023-06-22T07:23:09;7.30;;;6.75;;
64868;SDS011;51349;52.424;10.840;2023-06-22T07:28:09;8.18;;;7.57;;
64868;SDS011;51349;52.424;10.840;2023-06-22T07:33:11;8.45;;;7.75;;
64868;SDS011;51349;52.424;10.840;2023-06-22T07:38:12;8.50;;;7.90;;
64868;SDS011;51349;52.424;10.840;2023-06-22T07:43:12;10.50;;;9.65;;
64868;SDS011;51349;52.424;10.840;2023-06-22T07:48:13;9.73;;;8.82;;
64868;SDS011;51349;52.424;10.840;2023-06-22T07:53:14;10.00;;;8.98;;
64868;SDS011;51349;52.424;10.840;2023-06-22T07:58:14;9.32;;;8.63;;
64868;SDS011;51349;52.424;10.840;2023-06-22T08:03:15;10.25;;;9.45;;
64868;SDS011;51349;52.424;10.840;2023-06-22T08:08:16;10.00;;;9.30;;
64868;SDS011;51349;52.424;10.840;2023-06-22T08:13:17;10.40;;;9.63;;
64868;SDS011;51349;52.424;10.840;2023-06-22T08:18:17;10.50;;;9.70;;
64868;SDS011;51349;52.424;10.840;2023-06-22T08:23:18;10.23;;;9.52;;
64868;SDS011;51349;52.424;10.840;2023-06-22T08:28:19;11.43;;;10.40;;
64868;SDS011;51349;52.424;10.840;2023-06-22T08:33:19;10.73;;;9.80;;
64868;SDS011;51349;52.424;10.840;2023-06-22T08:38:23;10.98;;;10.18;;
64868;SDS011;51349;52.424;10.840;2023-06-22T08:43:24;10.55;;;9.65;;
64868;SDS011;51349;52.424;10.840;2023-06-22T08:48:25;11.27;;;10.45;;
64868;SDS011;51349;52.424;10.840;2023-06-22T08:53:26;10.65;;;9.82;;
64868;SDS011;51349;52.424;10.840;2023-06-22T08:58:26;11.02;;;10.13;;
64868;SDS011;51349;52.424;10.840;2023-06-22T09:03:27;11.43;;;10.40;;
64868;SDS011;51349;52.424;10.840;2023-06-22T09:08:28;12.18;;;11.18;;
64868;SDS011;51349;52.424;10.840;2023-06-22T09:13:30;11.93;;;11.02;;
64868;SDS011;51349;52.424;10.840;2023-06-22T09:18:32;10.85;;;9.95;;
64868;SDS011;51349;52.424;10.840;2023-06-22T09:23:33;11.35;;;10.55;;
64868;SDS011;51349;52.424;10.840;2023-06-22T09:28:34;11.05;;;10.32;;
64868;SDS011;51349;52.424;10.840;2023-06-22T09:33:35;11.55;;;10.60;;
64868;SDS011;51349;52.424;10.840;2023-06-22T09:38:38;11.75;;;10.90;;
64868;SDS011;51349;52.424;10.840;2023-06-22T09:43:38;11.05;;;10.15;;
64868;SDS011;51349;52.424;10.840;2023-06-22T09:48:39;10.95;;;10.15;;
64868;SDS011;51349;52.424;10.840;2023-06-22T09:53:39;12.63;;;11.73;;
64868;SDS011;51349;52.424;10.840;2023-06-22T09:58:41;11.50;;;10.70;;
64868;SDS011;51349;52.424;10.840;2023-06-22T10:03:42;10.48;;;9.75;;
64868;SDS011;51349;52.424;10.840;2023-06-22T10:08:43;10.82;;;10.13;;
64868;SDS011;51349;52.424;10.840;2023-06-22T10:13:44;11.45;;;10.52;;
64868;SDS011;51349;52.424;10.840;2023-06-22T10:18:45;11.52;;;10.50;;
64868;SDS011;51349;52.424;10.840;2023-06-22T10:23:45;11.95;;;11.05;;
64868;SDS011;51349;52.424;10.840;2023-06-22T10:28:46;10.25;;;9.50;;
64868;SDS011;51349;52.424;10.840;2023-06-22T10:33:47;12.02;;;11.15;;
64868;SDS011;51349;52.424;10.840;2023-06-22T10:38:49;11.27;;;10.38;;
64868;SDS011;51349;52.424;10.840;2023-06-22T10:43:50;10.27;;;9.52;;
64868;SDS011;51349;52.424;10.840;2023-06-22T10:48:51;9.98;;;9.27;;
64868;SDS011;51349;52.424;10.840;2023-06-22T10:53:54;10.35;;;9.55;;
64868;SDS011;51349;52.424;10.840;2023-06-22T10:58:55;10.38;;;9.55;;
64868;SDS011;51349;52.424;10.840;2023-06-22T11:03:55;11.45;;;10.65;;
64868;SDS011;51349;52.424;10.840;2023-06-22T11:08:56;9.93;;;9.18;;
64868;SDS011;51349;52.424;10.840;2023-06-22T11:13:58;11.23;;;10.40;;
64868;SDS011;51349;52.424;10.840;2023-06-22T11:18:59;10.60;;;9.73;;
64868;SDS011;51349;52.424;10.840;2023-06-22T11:23:59;10.90;;;9.98;;
64868;SDS011;51349;52.424;10.840;2023-06-22T11:29:00;11.93;;;10.70;;
64868;SDS011;51349;52.424;10.840;2023-06-22T11:34:01;11.18;;;10.25;;
64868;SDS011;51349;52.424;10.840;2023-06-22T11:39:02;10.25;;;9.55;;
64868;SDS011;51349;52.424;10.840;2023-06-22T11:44:03;10.15;;;9.27;;
64868;SDS011;51349;52.424;10.840;2023-06-22T11:49:04;10.93;;;10.10;;
64868;SDS011;51349;52.424;10.840;2023-06-22T11:54:05;10.77;;;9.98;;
64868;SDS011;51349;52.424;10.840;2023-06-22T11:59:05;10.38;;;9.52;;
64868;SDS011;51349;52.424;10.840;2023-06-22T12:04:06;10.10;;;9.38;;
64868;SDS011;51349;52.424;10.840;2023-06-22T12:09:07;11.18;;;10.48;;
64868;SDS011;51349;52.424;10.840;2023-06-22T12:14:08;12.45;;;11.40;;
64868;SDS011;51349;52.424;10.840;2023-06-22T12:19:08;10.70;;;9.98;;
64868;SDS011;51349;52.424;10.840;2023-06-22T12:24:09;9.93;;;9.27;;
64868;SDS011;51349;52.424;10.840;2023-06-22T12:29:10;10.00;;;9.20;;
64868;SDS011;51349;52.424;10.840;2023-06-22T12:34:11;10.00;;;9.18;;
64868;SDS011;51349;52.424;10.840;2023-06-22T12:39:11;8.73;;;8.20;;
64868;SDS011;51349;52.424;10.840;2023-06-22T12:44:12;9.75;;;9.05;;
64868;SDS011;51349;52.424;10.840;2023-06-22T12:49:13;9.63;;;8.80;;
64868;SDS011;51349;52.424;10.840;2023-06-22T12:54:13;9.07;;;8.40;;
64868;SDS011;51349;52.424;10.840;2023-06-22T12:59:14;9.57;;;8.88;;
64868;SDS011;51349;52.424;10.840;2023-06-22T13:04:17;8.57;;;8.00;;
64868;SDS011;51349;52.424;10.840;2023-06-22T13:09:19;8.15;;;7.65;;
64868;SDS011;51349;52.424;10.840;2023-06-22T13:14:20;9.10;;;8.60;;
64868;SDS011;51349;52.424;10.840;2023-06-22T13:19:20;8.07;;;7.43;;
64868;SDS011;51349;52.424;10.840;2023-06-22T13:24:21;8.43;;;7.65;;
64868;SDS011;51349;52.424;10.840;2023-06-22T13:29:23;8.77;;;8.18;;
64868;SDS011;51349;52.424;10.840;2023-06-22T13:34:23;8.30;;;7.80;;
64868;SDS011;51349;52.424;10.840;2023-06-22T13:39:24;7.93;;;7.22;;
64868;SDS011;51349;52.424;10.840;2023-06-22T13:44:25;8.27;;;7.55;;
64868;SDS011;51349;52.424;10.840;2023-06-22T13:49:28;8.10;;;7.60;;
64868;SDS011;51349;52.424;10.840;2023-06-22T13:54:29;7.78;;;7.18;;
64868;SDS011;51349;52.424;10.840;2023-06-22T13:59:30;8.10;;;7.60;;
64868;SDS011;51349;52.424;10.840;2023-06-22T14:04:30;8.57;;;7.97;;
64868;SDS011;51349;52.424;10.840;2023-06-22T14:09:31;8.50;;;7.82;;
64868;SDS011;51349;52.424;10.840;2023-06-22T14:14:32;7.88;;;7.28;;
64868;SDS011;51349;52.424;10.840;2023-06-22T14:19:33;7.85;;;7.35;;
64868;SDS011;51349;52.424;10.840;2023-06-22T14:24:37;8.65;;;7.85;;
64868;SDS011;51349;52.424;10.840;2023-06-22T14:29:38;8.50;;;7.80;;
64868;SDS011;51349;52.424;10.840;2023-06-22T14:34:38;10.07;;;7.25;;
64868;SDS011;51349;52.424;10.840;2023-06-22T14:39:39;8.45;;;7.95;;
64868;SDS011;51349;52.424;10.840;2023-06-22T14:44:40;8.90;;;8.30;;
64868;SDS011;51349;52.424;10.840;2023-06-22T14:49:40;8.25;;;7.75;;
64868;SDS011;51349;52.424;10.840;2023-06-22T14:54:41;8.35;;;7.85;;
64868;SDS011;51349;52.424;10.840;2023-06-22T14:59:42;8.13;;;7.50;;
64868;SDS011;51349;52.424;10.840;2023-06-22T15:04:42;8.25;;;7.65;;
64868;SDS011;51349;52.424;10.840;2023-06-22T15:09:43;8.30;;;7.80;;
64868;SDS011;51349;52.424;10.840;2023-06-22T15:14:45;8.70;;;7.85;;
64868;SDS011;51349;52.424;10.840;2023-06-22T15:19:46;8.38;;;7.80;;
64868;SDS011;51349;52.424;10.840;2023-06-22T15:24:46;8.60;;;8.00;;
64868;SDS011;51349;52.424;10.840;2023-06-22T15:29:48;8.27;;;7.68;;
64868;SDS011;51349;52.424;10.840;2023-06-22T15:34:48;8.45;;;7.85;;
64868;SDS011;51349;52.424;10.840;2023-06-22T15:39:51;8.55;;;7.85;;
64868;SDS011;51349;52.424;10.840;2023-06-22T15:44:52;8.23;;;7.40;;
64868;SDS011;51349;52.424;10.840;2023-06-22T15:49:52;7.88;;;7.38;;
64868;SDS011;51349;52.424;10.840;2023-06-22T15:54:53;8.77;;;8.02;;
64868;SDS011;51349;52.424;10.840;2023-06-22T15:59:55;7.95;;;7.45;;
64868;SDS011;51349;52.424;10.840;2023-06-22T16:04:56;8.55;;;7.53;;
64868;SDS011;51349;52.424;10.840;2023-06-22T16:09:59;8.02;;;7.53;;
64868;SDS011;51349;52.424;10.840;2023-06-22T16:15:00;7.85;;;7.28;;
64868;SDS011;51349;52.424;10.840;2023-06-22T16:20:00;7.63;;;6.88;;
64868;SDS011;51349;52.424;10.840;2023-06-22T16:25:01;7.75;;;7.13;;
64868;SDS011;51349;52.424;10.840;2023-06-22T16:30:02;7.20;;;6.70;;
64868;SDS011;51349;52.424;10.840;2023-06-22T16:35:03;7.82;;;7.22;;
64868;SDS011;51349;52.424;10.840;2023-06-22T16:40:04;7.57;;;7.05;;
64868;SDS011;51349;52.424;10.840;2023-06-22T16:45:05;8.77;;;7.53;;
64868;SDS011;51349;52.424;10.840;2023-06-22T16:50:06;9.10;;;8.30;;
64868;SDS011;51349;52.424;10.840;2023-06-22T16:55:08;9.38;;;8.52;;
64868;SDS011;51349;52.424;10.840;2023-06-22T17:00:10;8.20;;;7.60;;
64868;SDS011;51349;52.424;10.840;2023-06-22T17:05:12;9.27;;;8.57;;
64868;SDS011;51349;52.424;10.840;2023-06-22T17:10:13;9.15;;;8.30;;
64868;SDS011;51349;52.424;10.840;2023-06-22T17:15:14;9.73;;;8.73;;
64868;SDS011;51349;52.424;10.840;2023-06-22T17:20:16;6.20;;;5.65;;
64868;SDS011;51349;52.424;10.840;2023-06-22T17:25:17;8.05;;;2.70;;
64868;SDS011;51349;52.424;10.840;2023-06-22T17:30:21;7.47;;;2.55;;
64868;SDS011;51349;52.424;10.840;2023-06-22T17:35:22;7.28;;;2.17;;
64868;SDS011;51349;52.424;10.840;2023-06-22T17:40:23;5.72;;;1.60;;
64868;SDS011;51349;52.424;10.840;2023-06-22T17:50:48;5.40;;;2.30;;
64868;SDS011;51349;52.424;10.840;2023-06-22T17:55:52;2.95;;;1.80;;
64868;SDS011;51349;52.424;10.840;2023-06-22T18:00:53;5.38;;;2.85;;
64868;SDS011;51349;52.424;10.840;2023-06-22T18:05:54;4.20;;;1.90;;
64868;SDS011;51349;52.424;10.840;2023-06-22T18:10:56;4.15;;;1.85;;
64868;SDS011;51349;52.424;10.840;2023-06-22T18:15:59;2.42;;;1.85;;
64868;SDS011;51349;52.424;10.840;2023-06-22T18:21:01;2.45;;;1.65;;
64868;SDS011;51349;52.424;10.840;2023-06-22T18:26:03;1.00;;;0.90;;
64868;SDS011;51349;52.424;10.840;2023-06-22T18:31:05;2.78;;;1.80;;
64868;SDS011;51349;52.424;10.840;2023-06-22T18:36:06;1.40;;;1.30;;
64868;SDS011;51349;52.424;10.840;2023-06-22T18:41:21;2.30;;;1.75;;
64868;SDS011;51349;52.424;10.840;2023-06-22T18:46:40;2.78;;;2.45;;
64868;SDS011;51349;52.424;10.840;2023-06-22T18:56:53;3.10;;;2.80;;
64868;SDS011;51349;52.424;10.840;2023-06-22T19:01:59;3.60;;;2.67;;
64868;SDS011;51349;52.424;10.840;2023-06-22T19:07:00;3.40;;;3.00;;
64868;SDS011;51349;52.424;10.840;2023-06-22T19:12:20;3.20;;;2.85;;
64868;SDS011;51349;52.424;10.840;2023-06-22T19:17:22;3.08;;;2.80;;
64868;SDS011;51349;52.424;10.840;2023-06-22T19:22:23;3.55;;;2.90;;
64868;SDS011;51349;52.424;10.840;2023-06-22T19:27:43;3.45;;;3.13;;
64868;SDS011;51349;52.424;10.840;2023-06-22T19:32:45;3.85;;;3.20;;
64868;SDS011;51349;52.424;10.840;2023-06-22T19:37:47;5.60;;;4.47;;
64868;SDS011;51349;52.424;10.840;2023-06-22T19:42:52;3.40;;;3.08;;
64868;SDS011;51349;52.424;10.840;2023-06-22T19:47:57;4.90;;;4.40;;
64868;SDS011;51349;52.424;10.840;2023-06-22T19:52:58;4.30;;;3.78;;
64868;SDS011;51349;52.424;10.840;2023-06-22T19:57:58;4.72;;;3.55;;
64868;SDS011;51349;52.424;10.840;2023-06-22T20:02:59;5.75;;;3.17;;
64868;SDS011;51349;52.424;10.840;2023-06-22T20:08:02;5.53;;;3.30;;
64868;SDS011;51349;52.424;10.840;2023-06-22T20:13:06;4.25;;;2.88;;
64868;SDS011;51349;52.424;10.840;2023-06-22T20:18:16;5.38;;;2.85;;
64868;SDS011;51349;52.424;10.840;2023-06-22T20:23:17;3.20;;;2.45;;
64868;SDS011;51349;52.424;10.840;2023-06-22T20:28:19;3.55;;;2.50;;
64868;SDS011;51349;52.424;10.840;2023-06-22T20:33:20;1.55;;;1.45;;
64868;SDS011;51349;52.424;10.840;2023-06-22T20:38:20;3.65;;;1.92;;
64868;SDS011;51349;52.424;10.840;2023-06-22T20:43:24;2.45;;;2.25;;
64868;SDS011;51349;52.424;10.840;2023-06-22T20:48:25;3.08;;;2.50;;
64868;SDS011;51349;52.424;10.840;2023-06-22T20:53:26;3.47;;;2.55;;
64868;SDS011;51349;52.424;10.840;2023-06-22T20:58:29;3.60;;;2.50;;
64868;SDS011;51349;52.424;10.840;2023-06-22T21:03:30;4.90;;;3.42;;
64868;SDS011;51349;52.424;10.840;2023-06-22T21:08:31;5.45;;;3.00;;
64868;SDS011;51349;52.424;10.840;2023-06-22T21:13:31;5.45;;;3.67;;
64868;SDS011;51349;52.424;10.840;2023-06-22T21:18:34;4.53;;;3.65;;
64868;SDS011;51349;52.424;10.840;2023-06-22T21:23:34;4.72;;;3.25;;
64868;SDS011;51349;52.424;10.840;2023-06-22T21:28:35;4.15;;;3.60;;
64868;SDS011;51349;52.424;10.840;2023-06-22T21:33:36;3.47;;;3.13;;
64868;SDS011;51349;52.424;10.840;2023-06-22T21:38:36;3.85;;;3.30;;
64868;SDS011;51349;52.424;10.840;2023-06-22T21:43:37;4.10;;;3.45;;
64868;SDS011;51349;52.424;10.840;2023-06-22T21:48:37;5.57;;;3.30;;
64868;SDS011;51349;52.424;10.840;2023-06-22T21:53:39;9.00;;;4.40;;
64868;SDS011;51349;52.424;10.840;2023-06-22T21:58:40;7.22;;;3.50;;
64868;SDS011;51349;52.424;10.840;2023-06-22T22:03:41;5.88;;;3.45;;
64868;SDS011;51349;52.424;10.840;2023-06-22T22:08:43;3.38;;;3.08;;
64868;SDS011;51349;52.424;10.840;2023-06-22T22:13:43;6.88;;;3.20;;
64868;SDS011;51349;52.424;10.840;2023-06-22T22:18:44;2.67;;;2.47;;
64868;SDS011;51349;52.424;10.840;2023-06-22T22:23:47;3.60;;;3.00;;
64868;SDS011;51349;52.424;10.840;2023-06-22T22:28:47;6.10;;;3.15;;
64868;SDS011;51349;52.424;10.840;2023-06-22T22:33:48;5.40;;;2.97;;
64868;SDS011;51349;52.424;10.840;2023-06-22T22:38:49;5.13;;;3.08;;
64868;SDS011;51349;52.424;10.840;2023-06-22T22:43:49;3.15;;;2.88;;
64868;SDS011;51349;52.424;10.840;2023-06-22T22:48:50;4.60;;;3.22;;
64868;SDS011;51349;52.424;10.840;2023-06-22T22:53:50;7.07;;;3.35;;
64868;SDS011;51349;52.424;10.840;2023-06-22T22:58:53;4.90;;;2.85;;
64868;SDS011;51349;52.424;10.840;2023-06-22T23:03:53;3.33;;;2.72;;
64868;SDS011;51349;52.424;10.840;2023-06-22T23:08:55;3.53;;;2.97;;
64868;SDS011;51349;52.424;10.840;2023-06-22T23:13:57;3.63;;;3.30;;
64868;SDS011;51349;52.424;10.840;2023-06-22T23:18:58;5.78;;;2.92;;
64868;SDS011;51349;52.424;10.840;2023-06-22T23:23:58;6.10;;;3.30;;
64868;SDS011;51349;52.424;10.840;2023-06-22T23:28:59;2.78;;;2.55;;
64868;SDS011;51349;52.424;10.840;2023-06-22T23:34:00;4.28;;;2.95;;
64868;SDS011;51349;52.424;10.840;2023-06-22T23:39:03;3.60;;;3.30;;
64868;SDS011;51349;52.424;10.840;2023-06-22T23:44:04;5.10;;;3.22;;
64868;SDS011;51349;52.424;10.840;2023-06-22T23:49:05;4.03;;;3.40;;
64868;SDS011;51349;52.424;10.840;2023-06-22T23:54:06;3.20;;;2.90;;
64868;SDS011;51349;52.424;10.840;2023-06-22T23:59:06;3.83;;;3.47;;
